sensor_id;sensor_type;location;lat;lon;timestamp;temperature;humidity
41924;DHT22;27613;48.116;11.656;2022-07-23T00:00:02;23.60;86.30
41924;DHT22;27613;48.116;11.656;2022-07-23T00:02:28;23.60;87.30
41924;DHT22;27613;48.116;11.656;2022-07-23T00:04:54;23.50;87.60
41924;DHT22;27613;48.116;11.656;2022-07-23T00:07:19;23.50;87.00
41924;DHT22;27613;48.116;11.656;2022-07-23T00:09:45;23.40;87.90
41924;DHT22;27613;48.116;11.656;2022-07-23T00:12:10;23.30;87.30
41924;DHT22;27613;48.116;11.656;2022-07-23T00:14:36;23.20;88.30
41924;DHT22;27613;48.116;11.656;2022-07-23T00:17:01;23.10;88.40
41924;DHT22;27613;48.116;11.656;2022-07-23T00:19:27;23.10;88.50
41924;DHT22;27613;48.116;11.656;2022-07-23T00:21:54;23.10;88.50
41924;DHT22;27613;48.116;11.656;2022-07-23T00:24:20;23.10;88.30
41924;DHT22;27613;48.116;11.656;2022-07-23T00:26:45;23.20;88.30
41924;DHT22;27613;48.116;11.656;2022-07-23T00:29:11;23.30;87.50
41924;DHT22;27613;48.116;11.656;2022-07-23T00:31:37;23.10;87.60
41924;DHT22;27613;48.116;11.656;2022-07-23T00:34:02;23.00;88.10
41924;DHT22;27613;48.116;11.656;2022-07-23T00:36:28;23.00;87.60
41924;DHT22;27613;48.116;11.656;2022-07-23T00:38:54;23.10;86.40
41924;DHT22;27613;48.116;11.656;2022-07-23T00:41:19;23.10;85.30
41924;DHT22;27613;48.116;11.656;2022-07-23T00:43:45;23.20;84.30
41924;DHT22;27613;48.116;11.656;2022-07-23T00:46:11;23.20;84.50
41924;DHT22;27613;48.116;11.656;2022-07-23T00:48:36;23.10;84.90
41924;DHT22;27613;48.116;11.656;2022-07-23T00:51:02;23.10;84.70
41924;DHT22;27613;48.116;11.656;2022-07-23T00:53:28;23.10;85.40
41924;DHT22;27613;48.116;11.656;2022-07-23T00:55:54;23.10;83.90
41924;DHT22;27613;48.116;11.656;2022-07-23T00:58:20;23.20;84.10
41924;DHT22;27613;48.116;11.656;2022-07-23T01:00:46;23.30;83.90
41924;DHT22;27613;48.116;11.656;2022-07-23T01:03:11;23.10;85.40
41924;DHT22;27613;48.116;11.656;2022-07-23T01:05:37;22.90;86.60
41924;DHT22;27613;48.116;11.656;2022-07-23T01:08:05;22.90;86.50
41924;DHT22;27613;48.116;11.656;2022-07-23T01:10:30;22.90;86.90
41924;DHT22;27613;48.116;11.656;2022-07-23T01:12:57;22.90;87.90
41924;DHT22;27613;48.116;11.656;2022-07-23T01:15:23;22.80;87.80
41924;DHT22;27613;48.116;11.656;2022-07-23T01:17:49;22.90;87.70
41924;DHT22;27613;48.116;11.656;2022-07-23T01:20:15;23.00;87.50
41924;DHT22;27613;48.116;11.656;2022-07-23T01:22:41;23.00;86.80
41924;DHT22;27613;48.116;11.656;2022-07-23T01:25:07;23.20;86.60
41924;DHT22;27613;48.116;11.656;2022-07-23T01:27:32;23.20;86.40
41924;DHT22;27613;48.116;11.656;2022-07-23T01:30:00;23.30;84.50
41924;DHT22;27613;48.116;11.656;2022-07-23T01:32:26;23.30;82.50
41924;DHT22;27613;48.116;11.656;2022-07-23T01:34:52;23.30;80.80
41924;DHT22;27613;48.116;11.656;2022-07-23T01:37:17;23.20;81.20
41924;DHT22;27613;48.116;11.656;2022-07-23T01:39:43;22.70;81.70
41924;DHT22;27613;48.116;11.656;2022-07-23T01:42:09;22.30;82.30
41924;DHT22;27613;48.116;11.656;2022-07-23T01:44:35;21.80;82.20
41924;DHT22;27613;48.116;11.656;2022-07-23T01:47:00;21.80;81.70
41924;DHT22;27613;48.116;11.656;2022-07-23T01:49:26;22.10;78.60
41924;DHT22;27613;48.116;11.656;2022-07-23T01:51:52;22.10;78.10
41924;DHT22;27613;48.116;11.656;2022-07-23T01:54:28;22.20;78.50
41924;DHT22;27613;48.116;11.656;2022-07-23T01:56:54;22.10;79.60
41924;DHT22;27613;48.116;11.656;2022-07-23T01:59:19;21.90;80.60
41924;DHT22;27613;48.116;11.656;2022-07-23T02:01:45;21.80;82.70
41924;DHT22;27613;48.116;11.656;2022-07-23T02:04:11;21.50;84.50
41924;DHT22;27613;48.116;11.656;2022-07-23T02:06:36;21.50;84.90
41924;DHT22;27613;48.116;11.656;2022-07-23T02:09:02;21.40;85.70
41924;DHT22;27613;48.116;11.656;2022-07-23T02:11:27;21.50;85.50
41924;DHT22;27613;48.116;11.656;2022-07-23T02:13:53;21.50;84.60
41924;DHT22;27613;48.116;11.656;2022-07-23T02:16:19;21.60;84.60
41924;DHT22;27613;48.116;11.656;2022-07-23T02:18:44;21.50;85.90
41924;DHT22;27613;48.116;11.656;2022-07-23T02:21:11;21.50;88.70
41924;DHT22;27613;48.116;11.656;2022-07-23T02:23:36;21.30;90.70
41924;DHT22;27613;48.116;11.656;2022-07-23T02:26:02;21.10;92.00
41924;DHT22;27613;48.116;11.656;2022-07-23T02:28:28;20.90;93.90
41924;DHT22;27613;48.116;11.656;2022-07-23T02:30:53;20.90;95.00
41924;DHT22;27613;48.116;11.656;2022-07-23T02:33:19;20.80;95.60
41924;DHT22;27613;48.116;11.656;2022-07-23T02:35:44;20.70;96.00
41924;DHT22;27613;48.116;11.656;2022-07-23T02:38:10;20.80;96.10
41924;DHT22;27613;48.116;11.656;2022-07-23T02:40:35;20.70;96.70
41924;DHT22;27613;48.116;11.656;2022-07-23T02:43:01;20.50;97.20
41924;DHT22;27613;48.116;11.656;2022-07-23T02:45:26;20.50;98.80
41924;DHT22;27613;48.116;11.656;2022-07-23T02:47:53;20.40;99.90
41924;DHT22;27613;48.116;11.656;2022-07-23T02:50:18;20.20;99.90
41924;DHT22;27613;48.116;11.656;2022-07-23T02:52:44;20.30;99.90
41924;DHT22;27613;48.116;11.656;2022-07-23T02:55:09;20.40;99.90
41924;DHT22;27613;48.116;11.656;2022-07-23T02:57:36;20.40;99.90
41924;DHT22;27613;48.116;11.656;2022-07-23T03:00:03;20.40;99.90
41924;DHT22;27613;48.116;11.656;2022-07-23T03:02:29;20.10;99.90
41924;DHT22;27613;48.116;11.656;2022-07-23T03:04:54;19.70;99.90
41924;DHT22;27613;48.116;11.656;2022-07-23T03:07:20;19.50;99.90
41924;DHT22;27613;48.116;11.656;2022-07-23T03:09:46;18.50;99.90
41924;DHT22;27613;48.116;11.656;2022-07-23T03:12:11;18.40;99.90
41924;DHT22;27613;48.116;11.656;2022-07-23T03:14:37;17.90;99.90
41924;DHT22;27613;48.116;11.656;2022-07-23T03:17:02;17.90;99.90
41924;DHT22;27613;48.116;11.656;2022-07-23T03:19:28;17.90;99.90
41924;DHT22;27613;48.116;11.656;2022-07-23T03:21:54;18.10;99.90
41924;DHT22;27613;48.116;11.656;2022-07-23T03:24:19;18.10;99.90
41924;DHT22;27613;48.116;11.656;2022-07-23T03:26:45;17.90;99.90
41924;DHT22;27613;48.116;11.656;2022-07-23T03:29:11;17.90;99.90
41924;DHT22;27613;48.116;11.656;2022-07-23T03:31:36;17.90;99.90
41924;DHT22;27613;48.116;11.656;2022-07-23T03:34:02;17.90;99.90
41924;DHT22;27613;48.116;11.656;2022-07-23T03:36:27;17.90;99.90
41924;DHT22;27613;48.116;11.656;2022-07-23T03:38:53;17.90;99.90
41924;DHT22;27613;48.116;11.656;2022-07-23T03:41:20;18.00;99.90
41924;DHT22;27613;48.116;11.656;2022-07-23T03:43:46;18.10;99.90
41924;DHT22;27613;48.116;11.656;2022-07-23T03:46:11;18.20;99.90
41924;DHT22;27613;48.116;11.656;2022-07-23T03:48:37;18.30;99.90
41924;DHT22;27613;48.116;11.656;2022-07-23T03:51:03;18.30;99.90
41924;DHT22;27613;48.116;11.656;2022-07-23T03:53:29;18.30;99.90
41924;DHT22;27613;48.116;11.656;2022-07-23T03:55:54;18.30;99.90
41924;DHT22;27613;48.116;11.656;2022-07-23T03:58:20;18.20;99.90
41924;DHT22;27613;48.116;11.656;2022-07-23T04:00:46;18.30;99.90
41924;DHT22;27613;48.116;11.656;2022-07-23T04:03:12;18.40;99.90
41924;DHT22;27613;48.116;11.656;2022-07-23T04:05:37;18.50;99.90
41924;DHT22;27613;48.116;11.656;2022-07-23T04:08:03;18.60;99.90
41924;DHT22;27613;48.116;11.656;2022-07-23T04:10:28;18.60;99.90
41924;DHT22;27613;48.116;11.656;2022-07-23T04:12:54;18.60;99.90
41924;DHT22;27613;48.116;11.656;2022-07-23T04:15:20;18.60;99.90
41924;DHT22;27613;48.116;11.656;2022-07-23T04:17:45;18.60;99.90
41924;DHT22;27613;48.116;11.656;2022-07-23T04:20:12;18.60;99.90
41924;DHT22;27613;48.116;11.656;2022-07-23T04:22:38;18.60;99.90
41924;DHT22;27613;48.116;11.656;2022-07-23T04:25:04;18.60;99.90
41924;DHT22;27613;48.116;11.656;2022-07-23T04:27:30;18.60;99.90
41924;DHT22;27613;48.116;11.656;2022-07-23T04:29:58;18.70;99.90
41924;DHT22;27613;48.116;11.656;2022-07-23T04:32:24;18.70;99.90
41924;DHT22;27613;48.116;11.656;2022-07-23T04:34:50;18.80;99.90
41924;DHT22;27613;48.116;11.656;2022-07-23T04:37:15;18.90;99.90
41924;DHT22;27613;48.116;11.656;2022-07-23T04:39:41;18.90;99.90
41924;DHT22;27613;48.116;11.656;2022-07-23T04:42:06;18.90;99.90
41924;DHT22;27613;48.116;11.656;2022-07-23T04:44:32;18.90;99.90
41924;DHT22;27613;48.116;11.656;2022-07-23T04:46:58;18.80;99.90
41924;DHT22;27613;48.116;11.656;2022-07-23T04:49:23;18.90;99.90
41924;DHT22;27613;48.116;11.656;2022-07-23T04:51:49;18.90;99.90
41924;DHT22;27613;48.116;11.656;2022-07-23T04:54:14;18.80;99.90
41924;DHT22;27613;48.116;11.656;2022-07-23T04:56:40;18.90;99.90
41924;DHT22;27613;48.116;11.656;2022-07-23T04:59:05;19.00;99.90
41924;DHT22;27613;48.116;11.656;2022-07-23T05:01:31;19.00;99.90
41924;DHT22;27613;48.116;11.656;2022-07-23T05:03:56;19.10;99.90
41924;DHT22;27613;48.116;11.656;2022-07-23T05:06:22;19.10;99.90
41924;DHT22;27613;48.116;11.656;2022-07-23T05:08:48;19.20;99.90
41924;DHT22;27613;48.116;11.656;2022-07-23T05:11:13;19.20;99.90
41924;DHT22;27613;48.116;11.656;2022-07-23T05:13:39;19.30;99.90
41924;DHT22;27613;48.116;11.656;2022-07-23T05:16:04;19.40;99.90
41924;DHT22;27613;48.116;11.656;2022-07-23T05:18:30;19.40;99.90
41924;DHT22;27613;48.116;11.656;2022-07-23T05:20:56;19.60;99.90
41924;DHT22;27613;48.116;11.656;2022-07-23T05:23:21;19.50;99.90
41924;DHT22;27613;48.116;11.656;2022-07-23T05:25:47;19.60;99.90
41924;DHT22;27613;48.116;11.656;2022-07-23T05:28:12;19.80;99.90
41924;DHT22;27613;48.116;11.656;2022-07-23T05:30:38;19.80;99.90
41924;DHT22;27613;48.116;11.656;2022-07-23T05:33:03;19.80;99.90
41924;DHT22;27613;48.116;11.656;2022-07-23T05:35:29;19.90;99.90
41924;DHT22;27613;48.116;11.656;2022-07-23T05:37:55;19.90;99.90
41924;DHT22;27613;48.116;11.656;2022-07-23T05:40:20;19.90;99.90
41924;DHT22;27613;48.116;11.656;2022-07-23T05:42:46;19.90;99.90
41924;DHT22;27613;48.116;11.656;2022-07-23T05:45:11;19.90;99.90
41924;DHT22;27613;48.116;11.656;2022-07-23T05:47:41;19.90;99.90
41924;DHT22;27613;48.116;11.656;2022-07-23T05:50:07;19.90;99.90
41924;DHT22;27613;48.116;11.656;2022-07-23T05:52:33;19.90;99.90
41924;DHT22;27613;48.116;11.656;2022-07-23T05:54:59;20.00;99.90
41924;DHT22;27613;48.116;11.656;2022-07-23T05:57:24;20.00;99.90
41924;DHT22;27613;48.116;11.656;2022-07-23T05:59:50;20.10;99.90
41924;DHT22;27613;48.116;11.656;2022-07-23T06:02:15;20.10;99.90
41924;DHT22;27613;48.116;11.656;2022-07-23T06:04:41;20.10;99.90
41924;DHT22;27613;48.116;11.656;2022-07-23T06:07:07;20.10;99.90
41924;DHT22;27613;48.116;11.656;2022-07-23T06:09:33;20.10;99.90
41924;DHT22;27613;48.116;11.656;2022-07-23T06:11:58;20.10;99.90
41924;DHT22;27613;48.116;11.656;2022-07-23T06:14:24;20.10;99.90
41924;DHT22;27613;48.116;11.656;2022-07-23T06:16:49;20.10;99.90
41924;DHT22;27613;48.116;11.656;2022-07-23T06:19:15;20.10;99.90
41924;DHT22;27613;48.116;11.656;2022-07-23T06:21:40;20.10;99.90
41924;DHT22;27613;48.116;11.656;2022-07-23T06:24:06;20.00;99.90
41924;DHT22;27613;48.116;11.656;2022-07-23T06:26:32;19.90;99.90
41924;DHT22;27613;48.116;11.656;2022-07-23T06:28:57;19.70;99.90
41924;DHT22;27613;48.116;11.656;2022-07-23T06:31:23;19.60;99.90
41924;DHT22;27613;48.116;11.656;2022-07-23T06:33:48;19.60;99.90
41924;DHT22;27613;48.116;11.656;2022-07-23T06:36:15;19.60;99.90
41924;DHT22;27613;48.116;11.656;2022-07-23T06:38:40;19.60;99.90
41924;DHT22;27613;48.116;11.656;2022-07-23T06:41:06;19.60;99.90
41924;DHT22;27613;48.116;11.656;2022-07-23T06:43:32;19.60;99.90
41924;DHT22;27613;48.116;11.656;2022-07-23T06:45:57;19.50;99.90
41924;DHT22;27613;48.116;11.656;2022-07-23T06:48:23;19.70;99.90
41924;DHT22;27613;48.116;11.656;2022-07-23T06:50:48;19.80;99.90
41924;DHT22;27613;48.116;11.656;2022-07-23T06:53:14;19.90;99.90
41924;DHT22;27613;48.116;11.656;2022-07-23T06:55:39;20.00;99.90
41924;DHT22;27613;48.116;11.656;2022-07-23T06:58:05;20.10;99.90
41924;DHT22;27613;48.116;11.656;2022-07-23T07:00:31;20.30;99.90
41924;DHT22;27613;48.116;11.656;2022-07-23T07:02:58;20.30;99.90
41924;DHT22;27613;48.116;11.656;2022-07-23T07:05:24;20.40;99.90
41924;DHT22;27613;48.116;11.656;2022-07-23T07:07:54;20.50;99.90
41924;DHT22;27613;48.116;11.656;2022-07-23T07:10:19;20.50;99.90
41924;DHT22;27613;48.116;11.656;2022-07-23T07:12:45;20.70;99.90
41924;DHT22;27613;48.116;11.656;2022-07-23T07:15:10;20.80;99.90
41924;DHT22;27613;48.116;11.656;2022-07-23T07:17:37;20.90;99.90
41924;DHT22;27613;48.116;11.656;2022-07-23T07:20:03;21.10;99.90
41924;DHT22;27613;48.116;11.656;2022-07-23T07:22:29;21.20;99.90
41924;DHT22;27613;48.116;11.656;2022-07-23T07:24:54;21.40;99.90
41924;DHT22;27613;48.116;11.656;2022-07-23T07:27:20;21.40;99.90
41924;DHT22;27613;48.116;11.656;2022-07-23T07:29:46;21.60;99.90
41924;DHT22;27613;48.116;11.656;2022-07-23T07:32:11;21.70;99.90
41924;DHT22;27613;48.116;11.656;2022-07-23T07:34:37;21.80;99.90
41924;DHT22;27613;48.116;11.656;2022-07-23T07:37:03;21.80;99.90
41924;DHT22;27613;48.116;11.656;2022-07-23T07:39:28;21.90;99.90
41924;DHT22;27613;48.116;11.656;2022-07-23T07:41:55;21.70;99.90
41924;DHT22;27613;48.116;11.656;2022-07-23T07:44:20;21.60;99.90
41924;DHT22;27613;48.116;11.656;2022-07-23T07:46:46;21.30;99.90
41924;DHT22;27613;48.116;11.656;2022-07-23T07:49:12;21.10;99.90
41924;DHT22;27613;48.116;11.656;2022-07-23T07:51:37;21.00;99.90
41924;DHT22;27613;48.116;11.656;2022-07-23T07:54:03;20.90;99.90
41924;DHT22;27613;48.116;11.656;2022-07-23T07:56:28;20.90;99.90
41924;DHT22;27613;48.116;11.656;2022-07-23T07:58:54;20.90;99.90
41924;DHT22;27613;48.116;11.656;2022-07-23T08:01:20;21.00;99.90
41924;DHT22;27613;48.116;11.656;2022-07-23T08:03:46;21.00;99.90
41924;DHT22;27613;48.116;11.656;2022-07-23T08:06:11;21.00;99.90
41924;DHT22;27613;48.116;11.656;2022-07-23T08:08:37;21.10;99.90
41924;DHT22;27613;48.116;11.656;2022-07-23T08:11:02;20.90;99.90
41924;DHT22;27613;48.116;11.656;2022-07-23T08:13:28;21.00;99.90
41924;DHT22;27613;48.116;11.656;2022-07-23T08:15:54;20.90;99.90
41924;DHT22;27613;48.116;11.656;2022-07-23T08:18:20;20.90;99.90
41924;DHT22;27613;48.116;11.656;2022-07-23T08:20:46;20.90;99.90
41924;DHT22;27613;48.116;11.656;2022-07-23T08:23:11;20.90;99.90
41924;DHT22;27613;48.116;11.656;2022-07-23T08:25:40;21.10;99.90
41924;DHT22;27613;48.116;11.656;2022-07-23T08:28:08;21.30;99.90
41924;DHT22;27613;48.116;11.656;2022-07-23T08:30:36;21.50;99.90
41924;DHT22;27613;48.116;11.656;2022-07-23T08:33:04;21.70;99.90
41924;DHT22;27613;48.116;11.656;2022-07-23T08:35:37;21.70;99.90
41924;DHT22;27613;48.116;11.656;2022-07-23T08:38:06;21.80;99.90
41924;DHT22;27613;48.116;11.656;2022-07-23T08:40:34;21.80;99.90
41924;DHT22;27613;48.116;11.656;2022-07-23T08:43:04;21.50;99.90
41924;DHT22;27613;48.116;11.656;2022-07-23T08:45:30;21.60;99.90
41924;DHT22;27613;48.116;11.656;2022-07-23T08:47:58;21.80;99.90
41924;DHT22;27613;48.116;11.656;2022-07-23T08:50:25;21.80;99.90
41924;DHT22;27613;48.116;11.656;2022-07-23T08:52:52;21.80;99.90
41924;DHT22;27613;48.116;11.656;2022-07-23T08:55:20;22.20;99.90
41924;DHT22;27613;48.116;11.656;2022-07-23T08:57:48;22.30;99.90
41924;DHT22;27613;48.116;11.656;2022-07-23T09:00:15;22.10;99.50
41924;DHT22;27613;48.116;11.656;2022-07-23T09:02:42;21.80;99.90
41924;DHT22;27613;48.116;11.656;2022-07-23T09:05:09;21.80;99.90
41924;DHT22;27613;48.116;11.656;2022-07-23T09:07:37;21.90;99.90
41924;DHT22;27613;48.116;11.656;2022-07-23T09:10:10;21.90;99.90
41924;DHT22;27613;48.116;11.656;2022-07-23T09:12:37;21.90;99.80
41924;DHT22;27613;48.116;11.656;2022-07-23T09:15:07;22.00;99.90
41924;DHT22;27613;48.116;11.656;2022-07-23T09:17:40;21.90;99.90
41924;DHT22;27613;48.116;11.656;2022-07-23T09:20:12;22.10;99.30
41924;DHT22;27613;48.116;11.656;2022-07-23T09:22:39;22.40;99.00
41924;DHT22;27613;48.116;11.656;2022-07-23T09:25:13;22.60;99.70
41924;DHT22;27613;48.116;11.656;2022-07-23T09:27:49;22.80;99.70
41924;DHT22;27613;48.116;11.656;2022-07-23T09:30:15;23.00;98.20
41924;DHT22;27613;48.116;11.656;2022-07-23T09:32:41;23.10;96.80
41924;DHT22;27613;48.116;11.656;2022-07-23T09:35:07;23.50;96.20
41924;DHT22;27613;48.116;11.656;2022-07-23T09:37:32;23.80;94.50
41924;DHT22;27613;48.116;11.656;2022-07-23T09:40:09;24.30;93.70
41924;DHT22;27613;48.116;11.656;2022-07-23T09:42:37;25.30;91.20
41924;DHT22;27613;48.116;11.656;2022-07-23T09:45:03;26.30;88.60
41924;DHT22;27613;48.116;11.656;2022-07-23T09:47:31;26.70;81.90
41924;DHT22;27613;48.116;11.656;2022-07-23T09:50:01;26.60;81.60
41924;DHT22;27613;48.116;11.656;2022-07-23T09:52:43;26.80;80.50
41924;DHT22;27613;48.116;11.656;2022-07-23T09:55:09;26.20;81.40
41924;DHT22;27613;48.116;11.656;2022-07-23T09:57:35;26.50;78.30
41924;DHT22;27613;48.116;11.656;2022-07-23T10:00:03;26.80;77.20
41924;DHT22;27613;48.116;11.656;2022-07-23T10:02:32;27.20;75.90
41924;DHT22;27613;48.116;11.656;2022-07-23T10:04:58;28.00;73.50
41924;DHT22;27613;48.116;11.656;2022-07-23T10:07:26;28.90;71.30
41924;DHT22;27613;48.116;11.656;2022-07-23T10:09:53;29.40;69.30
41924;DHT22;27613;48.116;11.656;2022-07-23T10:12:19;30.90;65.90
41924;DHT22;27613;48.116;11.656;2022-07-23T10:14:48;30.20;65.10
41924;DHT22;27613;48.116;11.656;2022-07-23T10:17:14;29.70;66.10
41924;DHT22;27613;48.116;11.656;2022-07-23T10:19:40;31.10;64.00
41924;DHT22;27613;48.116;11.656;2022-07-23T10:22:06;30.40;64.20
41924;DHT22;27613;48.116;11.656;2022-07-23T10:25:05;31.50;61.60
41924;DHT22;27613;48.116;11.656;2022-07-23T10:30:07;31.80;57.80
41924;DHT22;27613;48.116;11.656;2022-07-23T10:32:40;31.60;57.80
41924;DHT22;27613;48.116;11.656;2022-07-23T10:41:12;33.60;54.60
41924;DHT22;27613;48.116;11.656;2022-07-23T10:43:38;32.80;55.30
41924;DHT22;27613;48.116;11.656;2022-07-23T10:46:23;31.10;56.90
41924;DHT22;27613;48.116;11.656;2022-07-23T10:49:30;29.70;59.90
41924;DHT22;27613;48.116;11.656;2022-07-23T10:54:51;28.10;64.40
41924;DHT22;27613;48.116;11.656;2022-07-23T10:57:22;27.90;64.50
41924;DHT22;27613;48.116;11.656;2022-07-23T11:02:29;27.70;65.30
41924;DHT22;27613;48.116;11.656;2022-07-23T11:05:06;27.60;64.80
41924;DHT22;27613;48.116;11.656;2022-07-23T11:07:33;27.60;65.20
41924;DHT22;27613;48.116;11.656;2022-07-23T11:09:58;27.40;64.20
41924;DHT22;27613;48.116;11.656;2022-07-23T11:17:28;26.90;65.70
41924;DHT22;27613;48.116;11.656;2022-07-23T11:22:56;26.50;67.10
41924;DHT22;27613;48.116;11.656;2022-07-23T11:27:49;26.30;68.00
41924;DHT22;27613;48.116;11.656;2022-07-23T11:35:40;26.20;68.40
41924;DHT22;27613;48.116;11.656;2022-07-23T11:38:07;26.00;69.40
41924;DHT22;27613;48.116;11.656;2022-07-23T11:40:35;25.80;69.60
41924;DHT22;27613;48.116;11.656;2022-07-23T11:43:03;25.70;69.20
41924;DHT22;27613;48.116;11.656;2022-07-23T11:45:37;25.60;69.50
41924;DHT22;27613;48.116;11.656;2022-07-23T11:48:04;25.40;70.90
41924;DHT22;27613;48.116;11.656;2022-07-23T11:50:31;25.50;71.10
41924;DHT22;27613;48.116;11.656;2022-07-23T11:52:57;25.40;71.30
41924;DHT22;27613;48.116;11.656;2022-07-23T11:55:23;25.50;71.10
41924;DHT22;27613;48.116;11.656;2022-07-23T11:57:51;25.40;71.40
41924;DHT22;27613;48.116;11.656;2022-07-23T12:00:28;25.40;72.30
41924;DHT22;27613;48.116;11.656;2022-07-23T12:02:59;25.40;72.40
41924;DHT22;27613;48.116;11.656;2022-07-23T12:05:29;25.50;72.10
41924;DHT22;27613;48.116;11.656;2022-07-23T12:07:56;25.40;72.40
41924;DHT22;27613;48.116;11.656;2022-07-23T12:10:24;25.30;73.30
41924;DHT22;27613;48.116;11.656;2022-07-23T12:12:55;25.30;73.50
41924;DHT22;27613;48.116;11.656;2022-07-23T12:15:28;25.30;73.50
41924;DHT22;27613;48.116;11.656;2022-07-23T12:17:55;25.00;74.40
41924;DHT22;27613;48.116;11.656;2022-07-23T12:20:23;24.90;74.50
41924;DHT22;27613;48.116;11.656;2022-07-23T12:22:52;24.70;76.00
41924;DHT22;27613;48.116;11.656;2022-07-23T12:25:21;24.80;75.20
41924;DHT22;27613;48.116;11.656;2022-07-23T12:28:05;24.90;75.20
41924;DHT22;27613;48.116;11.656;2022-07-23T12:30:41;24.80;75.20
41924;DHT22;27613;48.116;11.656;2022-07-23T12:33:09;25.00;75.60
41924;DHT22;27613;48.116;11.656;2022-07-23T12:35:40;25.00;75.10
41924;DHT22;27613;48.116;11.656;2022-07-23T12:38:10;24.80;76.30
41924;DHT22;27613;48.116;11.656;2022-07-23T12:40:45;24.90;76.20
41924;DHT22;27613;48.116;11.656;2022-07-23T12:43:26;24.80;76.00
41924;DHT22;27613;48.116;11.656;2022-07-23T12:48:35;24.90;76.40
41924;DHT22;27613;48.116;11.656;2022-07-23T12:51:14;24.70;76.20
41924;DHT22;27613;48.116;11.656;2022-07-23T12:53:42;24.70;77.00
41924;DHT22;27613;48.116;11.656;2022-07-23T12:56:09;24.50;77.00
41924;DHT22;27613;48.116;11.656;2022-07-23T12:58:50;24.60;76.60
41924;DHT22;27613;48.116;11.656;2022-07-23T13:01:27;24.50;77.00
41924;DHT22;27613;48.116;11.656;2022-07-23T13:09:10;24.90;76.30
41924;DHT22;27613;48.116;11.656;2022-07-23T13:11:38;25.20;75.30
41924;DHT22;27613;48.116;11.656;2022-07-23T13:14:03;25.20;74.70
41924;DHT22;27613;48.116;11.656;2022-07-23T13:16:30;25.20;75.10
41924;DHT22;27613;48.116;11.656;2022-07-23T13:18:58;25.30;75.00
41924;DHT22;27613;48.116;11.656;2022-07-23T13:21:25;25.40;74.80
41924;DHT22;27613;48.116;11.656;2022-07-23T13:23:51;25.60;74.20
41924;DHT22;27613;48.116;11.656;2022-07-23T13:26:17;25.70;74.40
41924;DHT22;27613;48.116;11.656;2022-07-23T13:28:43;25.70;73.40
41924;DHT22;27613;48.116;11.656;2022-07-23T13:31:08;25.70;74.20
41924;DHT22;27613;48.116;11.656;2022-07-23T13:33:34;25.90;73.30
41924;DHT22;27613;48.116;11.656;2022-07-23T13:36:00;25.60;73.90
41924;DHT22;27613;48.116;11.656;2022-07-23T13:38:26;25.10;75.70
41924;DHT22;27613;48.116;11.656;2022-07-23T13:40:53;25.00;76.50
41924;DHT22;27613;48.116;11.656;2022-07-23T13:43:21;25.00;76.70
41924;DHT22;27613;48.116;11.656;2022-07-23T13:45:48;24.70;78.10
41924;DHT22;27613;48.116;11.656;2022-07-23T13:48:14;24.80;78.30
41924;DHT22;27613;48.116;11.656;2022-07-23T13:50:41;25.10;77.60
41924;DHT22;27613;48.116;11.656;2022-07-23T13:53:09;25.40;77.00
41924;DHT22;27613;48.116;11.656;2022-07-23T13:55:35;25.20;76.80
41924;DHT22;27613;48.116;11.656;2022-07-23T13:58:01;25.10;77.30
41924;DHT22;27613;48.116;11.656;2022-07-23T14:00:28;25.30;77.10
41924;DHT22;27613;48.116;11.656;2022-07-23T14:02:54;25.00;77.60
41924;DHT22;27613;48.116;11.656;2022-07-23T14:05:20;24.90;77.50
41924;DHT22;27613;48.116;11.656;2022-07-23T14:07:46;24.70;78.00
41924;DHT22;27613;48.116;11.656;2022-07-23T14:10:12;24.60;78.20
41924;DHT22;27613;48.116;11.656;2022-07-23T14:12:38;24.70;78.20
41924;DHT22;27613;48.116;11.656;2022-07-23T14:15:05;24.80;77.50
41924;DHT22;27613;48.116;11.656;2022-07-23T14:17:32;24.70;79.40
41924;DHT22;27613;48.116;11.656;2022-07-23T14:19:58;24.50;81.20
41924;DHT22;27613;48.116;11.656;2022-07-23T14:22:24;24.20;83.60
41924;DHT22;27613;48.116;11.656;2022-07-23T14:24:50;24.20;83.80
41924;DHT22;27613;48.116;11.656;2022-07-23T14:27:16;24.10;85.60
41924;DHT22;27613;48.116;11.656;2022-07-23T14:29:43;24.10;83.60
41924;DHT22;27613;48.116;11.656;2022-07-23T14:32:08;24.20;83.10
41924;DHT22;27613;48.116;11.656;2022-07-23T14:34:34;24.10;83.80
41924;DHT22;27613;48.116;11.656;2022-07-23T14:37:01;24.20;84.00
41924;DHT22;27613;48.116;11.656;2022-07-23T14:39:26;24.40;83.30
41924;DHT22;27613;48.116;11.656;2022-07-23T14:41:52;24.40;82.70
41924;DHT22;27613;48.116;11.656;2022-07-23T14:44:18;24.50;82.30
41924;DHT22;27613;48.116;11.656;2022-07-23T14:46:43;24.50;81.60
41924;DHT22;27613;48.116;11.656;2022-07-23T14:49:09;24.50;81.70
41924;DHT22;27613;48.116;11.656;2022-07-23T14:51:35;24.60;80.80
41924;DHT22;27613;48.116;11.656;2022-07-23T14:54:02;24.50;81.10
41924;DHT22;27613;48.116;11.656;2022-07-23T14:56:28;24.70;81.20
41924;DHT22;27613;48.116;11.656;2022-07-23T14:58:53;24.70;80.20
41924;DHT22;27613;48.116;11.656;2022-07-23T15:01:22;25.80;78.50
41924;DHT22;27613;48.116;11.656;2022-07-23T15:03:48;26.20;76.10
41924;DHT22;27613;48.116;11.656;2022-07-23T15:06:15;26.80;74.90
41924;DHT22;27613;48.116;11.656;2022-07-23T15:08:41;26.90;74.10
41924;DHT22;27613;48.116;11.656;2022-07-23T15:11:07;26.60;74.50
41924;DHT22;27613;48.116;11.656;2022-07-23T15:13:35;26.00;75.10
41924;DHT22;27613;48.116;11.656;2022-07-23T15:16:00;26.00;75.50
41924;DHT22;27613;48.116;11.656;2022-07-23T15:18:26;26.10;75.60
41924;DHT22;27613;48.116;11.656;2022-07-23T15:20:52;26.10;75.60
41924;DHT22;27613;48.116;11.656;2022-07-23T15:23:17;25.90;76.00
41924;DHT22;27613;48.116;11.656;2022-07-23T15:25:43;26.40;75.00
41924;DHT22;27613;48.116;11.656;2022-07-23T15:28:08;26.20;75.80
41924;DHT22;27613;48.116;11.656;2022-07-23T15:30:34;27.10;74.00
41924;DHT22;27613;48.116;11.656;2022-07-23T15:33:00;27.80;72.20
41924;DHT22;27613;48.116;11.656;2022-07-23T15:35:25;27.40;71.90
41924;DHT22;27613;48.116;11.656;2022-07-23T15:37:51;27.80;71.40
41924;DHT22;27613;48.116;11.656;2022-07-23T15:40:16;28.20;70.40
41924;DHT22;27613;48.116;11.656;2022-07-23T15:42:42;27.90;70.80
41924;DHT22;27613;48.116;11.656;2022-07-23T15:45:08;28.50;69.50
41924;DHT22;27613;48.116;11.656;2022-07-23T15:47:33;28.80;68.90
41924;DHT22;27613;48.116;11.656;2022-07-23T15:49:59;28.30;69.10